createdAt,value
2022-08-03T00:00:32.716Z,993.91
2022-08-03T00:01:32.704Z,993.92
2022-08-03T00:02:32.714Z,993.86
2022-08-03T00:03:32.797Z,993.92
2022-08-03T00:04:34.167Z,993.86
2022-08-03T00:05:32.689Z,993.87
2022-08-03T00:06:36.798Z,993.86
2022-08-03T00:07:33.672Z,993.89
2022-08-03T00:08:32.674Z,993.91
2022-08-03T00:09:35.476Z,993.94
2022-08-03T00:10:32.627Z,993.90
2022-08-03T00:11:32.653Z,993.93
2022-08-03T00:12:32.634Z,993.93
2022-08-03T00:13:32.620Z,993.94
2022-08-03T00:14:32.719Z,993.93
2022-08-03T00:15:32.620Z,993.94
2022-08-03T00:16:32.631Z,993.91
2022-08-03T00:17:53.500Z,993.94
2022-08-03T00:18:34.650Z,993.94
2022-08-03T00:19:32.574Z,993.92
2022-08-03T00:20:32.592Z,994.05
2022-08-03T00:21:32.640Z,993.93
2022-08-03T00:22:32.608Z,993.91
2022-08-03T00:23:51.887Z,993.91
2022-08-03T00:24:34.534Z,993.94
2022-08-03T00:25:32.563Z,993.91
2022-08-03T00:26:32.511Z,993.90
2022-08-03T00:27:32.746Z,993.95
2022-08-03T00:28:32.533Z,993.91
2022-08-03T00:29:32.570Z,993.98
2022-08-03T00:30:32.588Z,993.98
2022-08-03T00:31:44.928Z,993.96
2022-08-03T00:32:33.546Z,993.97
2022-08-03T00:33:58.888Z,993.97
2022-08-03T00:34:57.582Z,993.96
2022-08-03T00:35:50.220Z,993.90
2022-08-03T00:36:33.498Z,993.88
2022-08-03T00:37:41.060Z,993.92
2022-08-03T00:38:33.467Z,993.88
2022-08-03T00:39:32.472Z,993.90
2022-08-03T00:40:32.476Z,993.90
2022-08-03T00:41:32.455Z,993.87
2022-08-03T00:42:32.490Z,993.88
2022-08-03T00:43:32.444Z,993.88
2022-08-03T00:44:32.431Z,993.83
2022-08-03T00:45:32.427Z,993.85
2022-08-03T00:46:32.449Z,993.89
2022-08-03T00:47:32.422Z,993.79
2022-08-03T00:48:33.441Z,993.80
2022-08-03T00:49:32.460Z,993.79
2022-08-03T00:50:32.395Z,993.78
2022-08-03T00:51:32.390Z,993.79
2022-08-03T00:52:32.461Z,993.82
2022-08-03T00:53:32.399Z,993.77
2022-08-03T00:54:32.379Z,993.82
2022-08-03T00:55:32.385Z,993.73
2022-08-03T00:56:32.337Z,993.84
2022-08-03T00:57:32.359Z,993.82
2022-08-03T00:58:32.343Z,993.80
2022-08-03T00:59:32.337Z,993.81
2022-08-03T01:00:32.373Z,993.80
2022-08-03T01:01:32.797Z,993.76
2022-08-03T01:02:32.325Z,993.81
2022-08-03T01:03:32.329Z,993.77
2022-08-03T01:04:32.395Z,993.76
2022-08-03T01:05:32.346Z,993.79
2022-08-03T01:06:32.325Z,993.82
2022-08-03T01:07:32.314Z,993.75
2022-08-03T01:08:32.298Z,993.79
2022-08-03T01:09:32.300Z,993.81
2022-08-03T01:10:32.296Z,993.74
2022-08-03T01:11:32.279Z,993.79
2022-08-03T01:12:32.253Z,993.78
2022-08-03T01:14:04.233Z,993.73
2022-08-03T01:14:33.234Z,993.78
2022-08-03T01:15:32.306Z,993.76
2022-08-03T01:16:36.826Z,993.76
2022-08-03T01:17:32.269Z,993.72
2022-08-03T01:18:32.260Z,993.72
2022-08-03T01:19:32.272Z,993.72
2022-08-03T01:20:32.297Z,993.77
2022-08-03T01:21:32.244Z,993.78
2022-08-03T01:22:32.203Z,993.72
2022-08-03T01:23:32.307Z,993.78
2022-08-03T01:24:32.199Z,993.78
2022-08-03T01:25:32.237Z,993.79
2022-08-03T01:26:32.162Z,993.79
2022-08-03T01:27:32.245Z,993.86
2022-08-03T01:28:32.241Z,993.85
2022-08-03T01:29:32.151Z,993.88
2022-08-03T01:30:32.156Z,993.89
2022-08-03T01:31:32.249Z,993.95
2022-08-03T01:33:00.249Z,993.90
2022-08-03T01:33:33.172Z,993.88
2022-08-03T01:34:32.328Z,993.91
2022-08-03T01:35:32.121Z,993.85
2022-08-03T01:36:32.160Z,993.95
2022-08-03T01:37:32.122Z,993.90
2022-08-03T01:38:32.115Z,993.91
2022-08-03T01:39:32.151Z,993.90
2022-08-03T01:40:32.076Z,993.84
2022-08-03T01:41:32.101Z,993.86
2022-08-03T01:42:32.084Z,993.83
2022-08-03T01:44:28.686Z,993.83
2022-08-03T01:44:33.094Z,993.79
2022-08-03T01:45:33.908Z,993.82
2022-08-03T01:46:32.039Z,993.77
2022-08-03T01:47:32.045Z,993.82
2022-08-03T01:48:32.026Z,993.80
2022-08-03T01:49:32.113Z,993.80
2022-08-03T01:50:32.062Z,993.75
2022-08-03T01:52:02.736Z,993.78
2022-08-03T01:52:33.025Z,993.77
2022-08-03T01:53:33.046Z,993.75
2022-08-03T01:54:32.028Z,993.71
2022-08-03T01:55:31.994Z,993.77
2022-08-03T01:56:32.001Z,993.71
2022-08-03T01:57:32.049Z,993.75
2022-08-03T01:58:31.985Z,993.72
2022-08-03T01:59:32.029Z,993.77
2022-08-03T02:00:31.974Z,993.80
2022-08-03T02:02:28.293Z,993.70
2022-08-03T02:02:34.621Z,993.73
2022-08-03T02:03:31.952Z,993.74
2022-08-03T02:04:31.969Z,993.74
2022-08-03T02:05:31.946Z,993.71
2022-08-03T02:06:59.942Z,993.70
2022-08-03T02:07:32.945Z,993.71
2022-08-03T02:08:31.924Z,993.67
2022-08-03T02:09:31.990Z,993.68
2022-08-03T02:10:35.556Z,993.76
2022-08-03T02:11:31.903Z,993.68
2022-08-03T02:12:31.914Z,993.72
2022-08-03T02:13:31.874Z,993.73
2022-08-03T02:14:31.917Z,993.70
2022-08-03T02:15:31.921Z,993.74
2022-08-03T02:16:31.908Z,993.73
2022-08-03T02:17:38.730Z,993.70
2022-08-03T02:18:32.874Z,993.72
2022-08-03T02:19:35.584Z,993.72
2022-08-03T02:20:32.883Z,993.70
2022-08-03T02:21:56.002Z,993.68
2022-08-03T02:22:32.954Z,993.69
2022-08-03T02:23:31.819Z,993.70
2022-08-03T02:24:31.790Z,993.74
2022-08-03T02:25:31.864Z,993.70
2022-08-03T02:26:31.848Z,993.72
2022-08-03T02:27:31.816Z,993.72
2022-08-03T02:28:31.815Z,993.70
2022-08-03T02:29:38.813Z,993.65
2022-08-03T02:30:32.793Z,993.71
2022-08-03T02:31:31.808Z,993.71
2022-08-03T02:32:31.780Z,993.69
2022-08-03T02:33:31.877Z,993.68
2022-08-03T02:34:31.899Z,993.66
2022-08-03T02:35:31.819Z,993.64
2022-08-03T02:36:31.812Z,993.68
2022-08-03T02:37:31.760Z,993.73
2022-08-03T02:38:31.773Z,993.71
2022-08-03T02:39:31.717Z,993.74
2022-08-03T02:40:31.767Z,993.71
2022-08-03T02:41:31.790Z,993.64
2022-08-03T02:42:31.706Z,993.70
2022-08-03T02:43:41.284Z,993.67
2022-08-03T02:44:32.725Z,993.64
2022-08-03T02:45:31.709Z,993.68
2022-08-03T02:46:31.737Z,993.64
2022-08-03T02:47:53.601Z,993.62
2022-08-03T02:48:32.718Z,993.60
2022-08-03T02:49:41.186Z,993.63
2022-08-03T02:50:32.668Z,993.61
2022-08-03T02:51:31.650Z,993.64
2022-08-03T02:52:31.623Z,993.63
2022-08-03T02:53:31.766Z,993.63
2022-08-03T02:54:31.658Z,993.60
2022-08-03T02:55:31.623Z,993.57
2022-08-03T02:56:31.596Z,993.57
2022-08-03T02:57:31.637Z,993.61
2022-08-03T02:58:31.652Z,993.61
2022-08-03T02:59:31.626Z,993.61
2022-08-03T03:00:31.592Z,993.64
2022-08-03T03:01:31.633Z,993.60
2022-08-03T03:02:31.598Z,993.57
2022-08-03T03:03:34.562Z,993.56
2022-08-03T03:04:33.213Z,993.57
2022-08-03T03:05:55.556Z,993.57
2022-08-03T03:06:32.558Z,993.62
2022-08-03T03:07:36.033Z,993.59
2022-08-03T03:08:32.540Z,993.59
2022-08-03T03:09:40.112Z,993.55
2022-08-03T03:10:32.593Z,993.51
2022-08-03T03:11:31.527Z,993.49
2022-08-03T03:12:31.502Z,993.55
2022-08-03T03:13:31.516Z,993.53
2022-08-03T03:14:33.150Z,993.57
2022-08-03T03:15:31.499Z,993.57
2022-08-03T03:16:31.514Z,993.54
2022-08-03T03:17:31.473Z,993.53
2022-08-03T03:18:31.489Z,993.53
2022-08-03T03:19:31.500Z,993.54
2022-08-03T03:20:31.457Z,993.47
2022-08-03T03:21:31.494Z,993.47
2022-08-03T03:22:31.479Z,993.55
2022-08-03T03:23:31.451Z,993.55
2022-08-03T03:24:31.460Z,993.55
2022-08-03T03:25:31.447Z,993.61
2022-08-03T03:26:31.472Z,993.56
2022-08-03T03:27:31.466Z,993.60
2022-08-03T03:28:31.440Z,993.55
2022-08-03T03:29:31.427Z,993.53
2022-08-03T03:30:32.404Z,993.52
2022-08-03T03:31:31.458Z,993.52
2022-08-03T03:32:31.479Z,993.58
2022-08-03T03:33:31.381Z,993.53
2022-08-03T03:34:31.391Z,993.63
2022-08-03T03:35:31.391Z,993.58
2022-08-03T03:36:32.404Z,993.67
2022-08-03T03:37:31.421Z,993.61
2022-08-03T03:38:31.382Z,993.63
2022-08-03T03:39:31.367Z,993.60
2022-08-03T03:40:31.353Z,993.58
2022-08-03T03:41:31.394Z,993.62
2022-08-03T03:42:31.359Z,993.60
2022-08-03T03:43:31.389Z,993.58
2022-08-03T03:44:31.387Z,993.65
2022-08-03T03:45:31.334Z,993.59
2022-08-03T03:46:31.355Z,993.61
2022-08-03T03:47:32.224Z,993.58
2022-08-03T03:48:32.214Z,993.58
2022-08-03T03:49:31.380Z,993.64
2022-08-03T03:50:31.289Z,993.62
2022-08-03T03:51:31.268Z,993.66
2022-08-03T03:52:31.292Z,993.69
2022-08-03T03:53:31.317Z,993.62
2022-08-03T03:54:31.263Z,993.64
2022-08-03T03:55:31.290Z,993.68
2022-08-03T03:56:31.233Z,993.63
2022-08-03T03:57:31.279Z,993.71
2022-08-03T03:58:31.295Z,993.63
2022-08-03T03:59:31.227Z,993.68
2022-08-03T04:00:31.380Z,993.69
2022-08-03T04:01:31.224Z,993.67
2022-08-03T04:02:31.209Z,993.64
2022-08-03T04:03:31.247Z,993.67
2022-08-03T04:04:31.219Z,993.68
2022-08-03T04:05:31.211Z,993.66
2022-08-03T04:06:31.223Z,993.70
2022-08-03T04:07:31.159Z,993.72
2022-08-03T04:08:31.253Z,993.64
2022-08-03T04:09:31.173Z,993.70
2022-08-03T04:10:31.262Z,993.74
2022-08-03T04:11:31.900Z,993.74
2022-08-03T04:12:31.145Z,993.78
2022-08-03T04:13:31.145Z,993.76
2022-08-03T04:14:31.165Z,993.77
2022-08-03T04:15:31.145Z,993.76
2022-08-03T04:16:31.206Z,993.76
2022-08-03T04:17:31.106Z,993.75
2022-08-03T04:18:31.110Z,993.77
2022-08-03T04:19:31.137Z,993.76
2022-08-03T04:20:31.080Z,993.80
2022-08-03T04:21:31.076Z,993.77
2022-08-03T04:22:31.099Z,993.80
2022-08-03T04:23:31.078Z,993.79
2022-08-03T04:24:31.080Z,993.83
2022-08-03T04:25:31.099Z,993.84
2022-08-03T04:26:31.109Z,993.82
2022-08-03T04:27:31.058Z,993.82
2022-08-03T04:28:32.025Z,993.85
2022-08-03T04:29:32.044Z,993.76
2022-08-03T04:30:31.026Z,993.85
2022-08-03T04:31:31.032Z,993.81
2022-08-03T04:32:31.116Z,993.78
2022-08-03T04:33:31.012Z,993.86
2022-08-03T04:34:31.014Z,993.79
2022-08-03T04:35:54.662Z,993.85
2022-08-03T04:36:32.003Z,993.86
2022-08-03T04:37:31.032Z,993.84
2022-08-03T04:38:31.050Z,993.87
2022-08-03T04:39:30.991Z,993.89
2022-08-03T04:40:30.965Z,993.87
2022-08-03T04:41:30.968Z,993.91
2022-08-03T04:42:30.969Z,993.90
2022-08-03T04:43:30.947Z,993.82
2022-08-03T04:44:30.973Z,993.90
2022-08-03T04:45:30.943Z,993.86
2022-08-03T04:46:30.940Z,993.92
2022-08-03T04:47:30.899Z,993.89
2022-08-03T04:48:30.924Z,993.94
2022-08-03T04:49:31.031Z,993.95
2022-08-03T04:50:30.914Z,993.94
2022-08-03T04:51:30.924Z,993.96
2022-08-03T04:52:30.921Z,993.91
2022-08-03T04:53:30.928Z,993.87
2022-08-03T04:54:30.964Z,993.90
2022-08-03T04:55:30.928Z,993.89
2022-08-03T04:56:30.857Z,993.87
2022-08-03T04:57:30.863Z,993.92
2022-08-03T04:58:30.837Z,993.87
2022-08-03T04:59:30.865Z,993.86
2022-08-03T05:00:30.855Z,993.84
2022-08-03T05:01:30.915Z,993.77
2022-08-03T05:02:30.878Z,993.83
2022-08-03T05:03:30.820Z,993.86
2022-08-03T05:04:30.815Z,993.86
2022-08-03T05:05:50.062Z,993.84
2022-08-03T05:06:31.787Z,993.82
2022-08-03T05:07:36.455Z,993.82
2022-08-03T05:08:31.823Z,993.88
2022-08-03T05:09:50.153Z,993.82
2022-08-03T05:10:31.848Z,993.83
2022-08-03T05:11:30.812Z,993.84
2022-08-03T05:12:33.747Z,993.80
2022-08-03T05:13:31.784Z,993.87
2022-08-03T05:14:30.710Z,993.91
2022-08-03T05:15:30.704Z,993.85
2022-08-03T05:16:30.699Z,993.88
2022-08-03T05:17:30.730Z,993.90
2022-08-03T05:18:30.766Z,993.91
2022-08-03T05:19:30.706Z,993.91
2022-08-03T05:20:30.747Z,993.91
2022-08-03T05:21:50.325Z,993.93
2022-08-03T05:22:31.697Z,993.94
2022-08-03T05:23:30.666Z,993.86
2022-08-03T05:24:30.677Z,993.89
2022-08-03T05:25:30.710Z,993.87
2022-08-03T05:26:30.737Z,993.94
2022-08-03T05:27:30.648Z,993.93
2022-08-03T05:28:30.638Z,993.88
2022-08-03T05:29:30.645Z,993.89
2022-08-03T05:30:33.828Z,993.93
2022-08-03T05:31:30.634Z,993.96
2022-08-03T05:32:30.726Z,993.89
2022-08-03T05:33:30.606Z,993.93
2022-08-03T05:34:30.592Z,993.90
2022-08-03T05:36:01.981Z,993.86
2022-08-03T05:36:31.566Z,993.90
2022-08-03T05:37:30.632Z,993.88
2022-08-03T05:38:34.580Z,993.91
2022-08-03T05:39:30.593Z,993.92
2022-08-03T05:40:30.552Z,993.87
2022-08-03T05:41:36.824Z,993.88
2022-08-03T05:42:31.593Z,993.83
2022-08-03T05:43:30.586Z,993.83
2022-08-03T05:44:30.659Z,993.85
2022-08-03T05:45:30.553Z,993.85
2022-08-03T05:46:30.553Z,993.87
2022-08-03T05:47:30.577Z,993.88
2022-08-03T05:48:30.638Z,993.84
2022-08-03T05:49:30.583Z,993.88
2022-08-03T05:50:30.499Z,993.82
2022-08-03T05:51:30.516Z,993.84
2022-08-03T05:52:30.675Z,993.84
2022-08-03T05:53:30.475Z,993.86
2022-08-03T05:54:56.306Z,993.88
2022-08-03T05:55:31.485Z,993.89
2022-08-03T05:56:30.466Z,993.90
2022-08-03T05:57:30.464Z,993.95
2022-08-03T05:58:30.469Z,993.90
2022-08-03T05:59:38.476Z,993.91
2022-08-03T06:00:32.415Z,993.96
2022-08-03T06:01:30.514Z,993.92
2022-08-03T06:02:30.430Z,993.96
2022-08-03T06:03:30.430Z,993.90
2022-08-03T06:04:30.425Z,993.89
2022-08-03T06:05:30.395Z,993.91
2022-08-03T06:06:32.329Z,993.92
2022-08-03T06:07:31.402Z,993.96
2022-08-03T06:08:30.479Z,993.95
2022-08-03T06:09:31.915Z,993.96
2022-08-03T06:10:35.738Z,993.93
2022-08-03T06:11:31.797Z,993.91
2022-08-03T06:12:30.472Z,993.92
2022-08-03T06:13:30.566Z,993.98
2022-08-03T06:14:30.359Z,993.92
2022-08-03T06:15:30.319Z,993.90
2022-08-03T06:16:30.298Z,993.93
2022-08-03T06:17:30.345Z,993.95
2022-08-03T06:18:31.289Z,993.96
2022-08-03T06:19:30.319Z,993.98
2022-08-03T06:20:30.277Z,993.97
2022-08-03T06:21:30.279Z,993.99
2022-08-03T06:22:30.263Z,993.99
2022-08-03T06:23:53.962Z,993.98
2022-08-03T06:24:31.280Z,993.96
2022-08-03T06:25:30.259Z,994.00
2022-08-03T06:26:30.230Z,993.99
2022-08-03T06:27:37.006Z,993.98
2022-08-03T06:28:52.357Z,994.04
2022-08-03T06:29:32.275Z,994.01
2022-08-03T06:30:31.225Z,994.01
2022-08-03T06:31:32.916Z,994.01
2022-08-03T06:32:30.196Z,994.02
2022-08-03T06:34:30.429Z,993.99
2022-08-03T06:34:35.599Z,994.01
2022-08-03T06:35:30.184Z,993.98
2022-08-03T06:36:30.177Z,994.04
2022-08-03T06:37:30.157Z,993.99
2022-08-03T06:38:30.192Z,994.00
2022-08-03T06:39:30.169Z,994.00
2022-08-03T06:40:30.208Z,993.97
2022-08-03T06:41:30.328Z,993.94
2022-08-03T06:42:31.216Z,993.99
2022-08-03T06:43:31.177Z,993.98
2022-08-03T06:44:30.107Z,993.94
2022-08-03T06:45:31.975Z,994.00
2022-08-03T06:46:30.180Z,993.98
2022-08-03T06:47:30.205Z,993.94
2022-08-03T06:48:30.119Z,993.96
2022-08-03T06:49:31.130Z,993.97
2022-08-03T06:50:30.250Z,993.92
2022-08-03T06:52:05.570Z,993.96
2022-08-03T06:52:38.140Z,993.96
2022-08-03T06:53:31.122Z,993.97
2022-08-03T06:54:32.850Z,993.95
2022-08-03T06:55:30.058Z,993.87
2022-08-03T06:56:30.083Z,993.91
2022-08-03T06:57:30.026Z,993.95
2022-08-03T06:58:30.023Z,993.92
2022-08-03T07:00:07.599Z,993.99
2022-08-03T07:00:31.027Z,993.98
2022-08-03T07:01:30.086Z,994.02
2022-08-03T07:02:29.996Z,993.98
2022-08-03T07:03:30.111Z,993.98
2022-08-03T07:04:30.008Z,993.96
2022-08-03T07:05:30.042Z,993.97
2022-08-03T07:06:29.985Z,993.97
2022-08-03T07:07:29.950Z,994.01
2022-08-03T07:08:33.622Z,993.99
2022-08-03T07:09:29.965Z,993.96
2022-08-03T07:10:29.976Z,993.96
2022-08-03T07:11:29.961Z,993.97
2022-08-03T07:12:29.952Z,993.86
2022-08-03T07:13:29.938Z,993.93
2022-08-03T07:14:29.899Z,993.95
2022-08-03T07:15:54.344Z,993.95
2022-08-03T07:16:30.889Z,993.92
2022-08-03T07:17:30.008Z,993.94
2022-08-03T07:18:30.887Z,993.91
2022-08-03T07:19:29.936Z,993.96
2022-08-03T07:20:32.530Z,993.98
2022-08-03T07:21:30.884Z,993.96
2022-08-03T07:22:30.025Z,993.98
2022-08-03T07:23:29.934Z,993.96
2022-08-03T07:24:29.901Z,993.96
2022-08-03T07:25:29.899Z,993.92
2022-08-03T07:26:29.867Z,993.95
2022-08-03T07:27:29.878Z,993.96
2022-08-03T07:28:29.927Z,993.96
2022-08-03T07:29:29.795Z,993.99
2022-08-03T07:30:29.813Z,993.94
2022-08-03T07:31:34.343Z,993.97
2022-08-03T07:32:29.828Z,993.96
2022-08-03T07:33:29.820Z,993.93
2022-08-03T07:34:29.769Z,993.98
2022-08-03T07:35:29.757Z,993.88
2022-08-03T07:36:29.790Z,993.88
2022-08-03T07:37:29.863Z,993.85
2022-08-03T07:38:29.873Z,993.88
2022-08-03T07:39:29.791Z,993.85
2022-08-03T07:40:31.550Z,993.80
2022-08-03T07:41:29.737Z,993.84
2022-08-03T07:42:29.789Z,993.87
2022-08-03T07:43:29.745Z,993.81
2022-08-03T07:44:29.801Z,993.84
2022-08-03T07:45:29.859Z,993.88
2022-08-03T07:46:29.716Z,993.89
2022-08-03T07:47:35.465Z,993.91
2022-08-03T07:48:30.799Z,993.83
2022-08-03T07:49:29.863Z,993.79
2022-08-03T07:50:29.673Z,993.82
2022-08-03T07:51:30.701Z,993.79
2022-08-03T07:52:29.698Z,993.78
2022-08-03T07:53:29.658Z,993.75
2022-08-03T07:54:29.789Z,993.75
2022-08-03T07:55:29.667Z,993.75
2022-08-03T07:56:29.639Z,993.77
2022-08-03T07:57:29.693Z,993.77
2022-08-03T07:58:29.715Z,993.76
2022-08-03T07:59:29.685Z,993.78
2022-08-03T08:00:30.706Z,993.81
2022-08-03T08:01:29.786Z,993.78
2022-08-03T08:02:29.650Z,993.73
2022-08-03T08:03:29.693Z,993.76
2022-08-03T08:04:30.594Z,993.84
2022-08-03T08:05:29.643Z,993.78
2022-08-03T08:06:29.614Z,993.76
2022-08-03T08:07:29.568Z,993.74
2022-08-03T08:08:29.605Z,993.80
2022-08-03T08:09:29.586Z,993.77
2022-08-03T08:10:29.554Z,993.77
2022-08-03T08:11:29.617Z,993.77
2022-08-03T08:12:29.565Z,993.74
2022-08-03T08:13:29.579Z,993.78
2022-08-03T08:14:29.564Z,993.67
2022-08-03T08:15:29.544Z,993.71
2022-08-03T08:16:29.584Z,993.69
2022-08-03T08:17:29.599Z,993.72
2022-08-03T08:18:29.563Z,993.68
2022-08-03T08:19:29.526Z,993.72
2022-08-03T08:20:31.337Z,993.72
2022-08-03T08:21:53.181Z,993.65
2022-08-03T08:22:31.554Z,993.71
2022-08-03T08:23:42.182Z,993.70
2022-08-03T08:24:30.493Z,993.65
2022-08-03T08:25:29.681Z,993.64
2022-08-03T08:26:29.518Z,993.59
2022-08-03T08:28:22.172Z,993.64
2022-08-03T08:28:33.654Z,993.62
2022-08-03T08:29:29.487Z,993.65
2022-08-03T08:30:29.448Z,993.58
2022-08-03T08:31:29.491Z,993.61
2022-08-03T08:32:29.423Z,993.62
2022-08-03T08:33:48.095Z,993.62
2022-08-03T08:34:31.446Z,993.61
2022-08-03T08:35:29.407Z,993.60
2022-08-03T08:36:29.515Z,993.58
2022-08-03T08:37:29.388Z,993.58
2022-08-03T08:38:29.439Z,993.64
2022-08-03T08:39:29.394Z,993.56
2022-08-03T08:40:29.389Z,993.61
2022-08-03T08:41:31.995Z,993.53
2022-08-03T08:42:29.370Z,993.57
2022-08-03T08:43:29.500Z,993.56
2022-08-03T08:44:29.378Z,993.54
2022-08-03T08:45:29.365Z,993.55
2022-08-03T08:46:29.439Z,993.55
2022-08-03T08:47:29.337Z,993.51
2022-08-03T08:48:30.353Z,993.50
2022-08-03T08:49:29.379Z,993.49
2022-08-03T08:50:29.440Z,993.51
2022-08-03T08:51:59.034Z,993.53
2022-08-03T08:52:32.130Z,993.49
2022-08-03T08:53:29.312Z,993.47
2022-08-03T08:54:29.435Z,993.48
2022-08-03T08:55:29.346Z,993.46
2022-08-03T08:56:29.390Z,993.47
2022-08-03T08:57:42.446Z,993.44
2022-08-03T08:58:31.375Z,993.41
2022-08-03T08:59:48.905Z,993.36
2022-08-03T09:00:30.335Z,993.41
2022-08-03T09:01:29.316Z,993.36
2022-08-03T09:02:29.282Z,993.35
2022-08-03T09:03:30.768Z,993.38
2022-08-03T09:04:29.265Z,993.44
2022-08-03T09:05:54.832Z,993.39
2022-08-03T09:06:31.276Z,993.38
2022-08-03T09:07:29.324Z,993.35
2022-08-03T09:08:29.210Z,993.39
2022-08-03T09:10:11.351Z,993.41
2022-08-03T09:10:30.195Z,993.39
2022-08-03T09:11:51.636Z,993.42
2022-08-03T09:12:42.013Z,993.43
2022-08-03T09:13:31.206Z,993.40
2022-08-03T09:14:36.540Z,993.37
2022-08-03T09:15:30.189Z,993.42
2022-08-03T09:16:29.168Z,993.40
2022-08-03T09:17:29.194Z,993.37
2022-08-03T09:18:32.555Z,993.30
2022-08-03T09:19:29.190Z,993.23
2022-08-03T09:20:29.118Z,993.28
2022-08-03T09:21:32.182Z,993.25
2022-08-03T09:22:30.147Z,993.31
2022-08-03T09:24:00.669Z,993.32
2022-08-03T09:24:41.210Z,993.21
2022-08-03T09:25:31.122Z,993.31
2022-08-03T09:26:29.112Z,993.29
2022-08-03T09:27:29.084Z,993.27
2022-08-03T09:28:53.955Z,993.27
2022-08-03T09:29:30.120Z,993.22
2022-08-03T09:30:34.191Z,993.32
2022-08-03T09:31:30.075Z,993.29
2022-08-03T09:32:29.015Z,993.26
2022-08-03T09:33:36.057Z,993.30
2022-08-03T09:34:30.063Z,993.35
2022-08-03T09:35:51.503Z,993.24
2022-08-03T09:36:31.037Z,993.31
2022-08-03T09:38:12.723Z,993.25
2022-08-03T09:38:30.018Z,993.29
2022-08-03T09:39:40.591Z,993.18
2022-08-03T09:40:30.043Z,993.23
2022-08-03T09:41:28.981Z,993.23
2022-08-03T09:42:28.979Z,993.18
2022-08-03T09:43:28.965Z,993.24
2022-08-03T09:44:29.004Z,993.18
2022-08-03T09:45:28.985Z,993.16
2022-08-03T09:46:28.932Z,993.19
2022-08-03T09:47:28.954Z,993.19
2022-08-03T09:48:28.938Z,993.22
2022-08-03T09:49:28.990Z,993.23
2022-08-03T09:50:28.937Z,993.12
2022-08-03T09:52:29.512Z,993.15
2022-08-03T09:52:38.179Z,993.16
2022-08-03T09:53:29.887Z,993.22
2022-08-03T09:54:28.909Z,993.16
2022-08-03T09:56:33.264Z,993.15
2022-08-03T09:56:34.728Z,993.19
2022-08-03T09:57:29.861Z,993.12
2022-08-03T09:58:28.843Z,993.15
2022-08-03T09:59:28.957Z,993.15
2022-08-03T10:00:28.890Z,993.17
2022-08-03T10:01:28.915Z,993.19
2022-08-03T10:02:28.820Z,993.20
2022-08-03T10:03:28.943Z,993.15
2022-08-03T10:04:28.829Z,993.06
2022-08-03T10:05:28.834Z,993.15
2022-08-03T10:06:29.316Z,993.15
2022-08-03T10:07:28.810Z,993.11
2022-08-03T10:08:28.804Z,993.20
2022-08-03T10:09:28.894Z,993.13
2022-08-03T10:10:31.591Z,993.17
2022-08-03T10:11:28.797Z,993.13
2022-08-03T10:12:28.789Z,993.08
2022-08-03T10:13:28.746Z,993.10
2022-08-03T10:14:28.752Z,993.07
2022-08-03T10:16:23.291Z,993.00
2022-08-03T10:16:29.752Z,993.02
2022-08-03T10:17:28.811Z,993.04
2022-08-03T10:18:28.761Z,993.11
2022-08-03T10:19:28.720Z,993.07
2022-08-03T10:20:28.738Z,993.11
2022-08-03T10:21:28.763Z,992.98
2022-08-03T10:22:28.766Z,993.03
2022-08-03T10:23:31.872Z,993.08
2022-08-03T10:24:28.750Z,993.01
2022-08-03T10:25:33.047Z,993.02
2022-08-03T10:26:28.693Z,993.03
2022-08-03T10:27:28.722Z,992.98
2022-08-03T10:28:28.663Z,992.99
2022-08-03T10:29:28.713Z,993.00
2022-08-03T10:30:29.019Z,992.96
2022-08-03T10:31:28.640Z,992.93
2022-08-03T10:32:28.649Z,992.92
2022-08-03T10:33:50.183Z,992.95
2022-08-03T10:34:29.650Z,992.91
2022-08-03T10:35:28.769Z,992.97
2022-08-03T10:36:28.595Z,992.92
2022-08-03T10:37:28.613Z,992.92
2022-08-03T10:38:28.595Z,992.99
2022-08-03T10:39:28.641Z,992.96
2022-08-03T10:40:54.549Z,992.96
2022-08-03T10:41:30.605Z,992.90
2022-08-03T10:42:28.648Z,992.95
2022-08-03T10:43:28.593Z,992.86
2022-08-03T10:44:28.674Z,992.81
2022-08-03T10:45:28.628Z,992.87
2022-08-03T10:46:28.576Z,992.86
2022-08-03T10:47:28.527Z,992.82
2022-08-03T10:48:28.566Z,992.91
2022-08-03T10:49:34.443Z,992.91
2022-08-03T10:50:29.553Z,992.90
2022-08-03T10:51:28.577Z,992.92
2022-08-03T10:52:32.798Z,992.87
2022-08-03T10:53:29.519Z,992.78
2022-08-03T10:54:28.495Z,992.75
2022-08-03T10:55:28.510Z,992.78
2022-08-03T10:56:48.021Z,992.76
2022-08-03T10:57:29.596Z,992.75
2022-08-03T10:58:30.825Z,992.74
2022-08-03T10:59:28.450Z,992.77
2022-08-03T11:00:28.520Z,992.69
2022-08-03T11:01:28.452Z,992.73
2022-08-03T11:02:29.511Z,992.71
2022-08-03T11:03:28.441Z,992.67
2022-08-03T11:04:29.942Z,992.72
2022-08-03T11:05:28.441Z,992.65
2022-08-03T11:06:28.423Z,992.67
2022-08-03T11:07:29.418Z,992.75
2022-08-03T11:08:28.448Z,992.66
2022-08-03T11:09:28.394Z,992.69
2022-08-03T11:10:28.375Z,992.62
2022-08-03T11:11:28.379Z,992.66
2022-08-03T11:12:31.137Z,992.64
2022-08-03T11:13:28.403Z,992.64
2022-08-03T11:14:28.382Z,992.60
2022-08-03T11:15:28.397Z,992.61
2022-08-03T11:16:28.373Z,992.61
2022-08-03T11:17:28.404Z,992.61
2022-08-03T11:18:28.378Z,992.63
2022-08-03T11:19:28.339Z,992.64
2022-08-03T11:20:28.341Z,992.64
2022-08-03T11:21:30.437Z,992.53
2022-08-03T11:22:29.322Z,992.60
2022-08-03T11:24:02.504Z,992.53
2022-08-03T11:24:29.335Z,992.56
2022-08-03T11:25:54.745Z,992.48
2022-08-03T11:26:29.267Z,992.50
2022-08-03T11:27:29.276Z,992.57
2022-08-03T11:28:28.486Z,992.49
2022-08-03T11:29:28.260Z,992.48
2022-08-03T11:30:28.273Z,992.37
2022-08-03T11:31:52.087Z,992.43
2022-08-03T11:32:30.250Z,992.47
2022-08-03T11:33:28.244Z,992.43
2022-08-03T11:34:28.230Z,992.43
2022-08-03T11:35:28.282Z,992.44
2022-08-03T11:36:32.550Z,992.34
2022-08-03T11:37:33.160Z,992.36
2022-08-03T11:38:30.512Z,992.36
2022-08-03T11:39:28.235Z,992.35
2022-08-03T11:40:28.225Z,992.41
2022-08-03T11:41:28.202Z,992.38
2022-08-03T11:42:28.233Z,992.35
2022-08-03T11:43:31.030Z,992.39
2022-08-03T11:44:29.190Z,992.45
2022-08-03T11:45:28.419Z,992.39
2022-08-03T11:46:30.076Z,992.39
2022-08-03T11:47:28.326Z,992.40
2022-08-03T11:48:28.516Z,992.43
2022-08-03T11:49:28.353Z,992.37
2022-08-03T11:50:28.182Z,992.39
2022-08-03T11:51:28.270Z,992.37
2022-08-03T11:52:28.987Z,992.38
2022-08-03T11:53:29.163Z,992.40
2022-08-03T11:54:28.101Z,992.38
2022-08-03T11:55:30.650Z,992.36
2022-08-03T11:56:29.103Z,992.39
2022-08-03T11:59:00.775Z,992.34
2022-08-03T11:59:16.665Z,992.25
2022-08-03T11:59:29.086Z,992.34
2022-08-03T12:00:28.095Z,992.35
2022-08-03T12:01:28.100Z,992.35
2022-08-03T12:02:31.364Z,992.32
2022-08-03T12:03:28.143Z,992.31
2022-08-03T12:04:28.069Z,992.36
2022-08-03T12:05:28.133Z,992.26
2022-08-03T12:06:28.098Z,992.31
2022-08-03T12:08:04.021Z,992.25
2022-08-03T12:08:29.039Z,992.34
2022-08-03T12:09:28.012Z,992.30
2022-08-03T12:10:28.124Z,992.29
2022-08-03T12:11:28.049Z,992.29
2022-08-03T12:12:28.055Z,992.34
2022-08-03T12:14:43.925Z,992.36
2022-08-03T12:14:50.296Z,992.35
2022-08-03T12:15:29.058Z,992.37
2022-08-03T12:16:27.987Z,992.36
2022-08-03T12:17:28.119Z,992.40
2022-08-03T12:18:27.994Z,992.34
2022-08-03T12:19:28.010Z,992.26
2022-08-03T12:20:34.516Z,992.28
2022-08-03T12:21:28.955Z,992.35
2022-08-03T12:22:28.003Z,992.38
2022-08-03T12:23:27.935Z,992.34
2022-08-03T12:24:28.060Z,992.32
2022-08-03T12:25:39.758Z,992.33
2022-08-03T12:26:28.929Z,992.24
2022-08-03T12:27:27.958Z,992.30
2022-08-03T12:28:36.025Z,992.34